sensor_id;sensor_type;location;lat;lon;timestamp;P1;durP1;ratioP1;P2;durP2;ratioP2
7154;SDS011;3619;53.784;10.440;2022-12-11T00:01:50;20.67;;;19.87;;
7154;SDS011;3619;53.784;10.440;2022-12-11T00:04:20;19.27;;;18.57;;
7154;SDS011;3619;53.784;10.440;2022-12-11T00:06:48;24.97;;;24.07;;
7154;SDS011;3619;53.784;10.440;2022-12-11T00:09:31;21.97;;;21.17;;
7154;SDS011;3619;53.784;10.440;2022-12-11T00:11:58;21.17;;;20.37;;
7154;SDS011;3619;53.784;10.440;2022-12-11T00:14:26;21.67;;;20.87;;
7154;SDS011;3619;53.784;10.440;2022-12-11T00:16:55;21.23;;;20.43;;
7154;SDS011;3619;53.784;10.440;2022-12-11T00:19:22;21.07;;;20.27;;
7154;SDS011;3619;53.784;10.440;2022-12-11T00:21:52;24.27;;;23.37;;
7154;SDS011;3619;53.784;10.440;2022-12-11T00:24:20;20.80;;;20.00;;
7154;SDS011;3619;53.784;10.440;2022-12-11T00:26:47;24.10;;;23.20;;
7154;SDS011;3619;53.784;10.440;2022-12-11T00:29:14;21.80;;;21.00;;
7154;SDS011;3619;53.784;10.440;2022-12-11T00:31:41;23.17;;;22.27;;
7154;SDS011;3619;53.784;10.440;2022-12-11T00:34:08;20.60;;;19.80;;
7154;SDS011;3619;53.784;10.440;2022-12-11T00:36:36;21.67;;;20.87;;
7154;SDS011;3619;53.784;10.440;2022-12-11T00:39:06;20.30;;;19.50;;
7154;SDS011;3619;53.784;10.440;2022-12-11T00:41:33;17.90;;;17.20;;
7154;SDS011;3619;53.784;10.440;2022-12-11T00:44:00;24.60;;;23.70;;
7154;SDS011;3619;53.784;10.440;2022-12-11T00:46:33;22.90;;;22.00;;
7154;SDS011;3619;53.784;10.440;2022-12-11T00:49:00;23.47;;;22.57;;
7154;SDS011;3619;53.784;10.440;2022-12-11T00:51:27;20.87;;;20.07;;
7154;SDS011;3619;53.784;10.440;2022-12-11T00:53:54;21.77;;;20.97;;
7154;SDS011;3619;53.784;10.440;2022-12-11T00:56:22;21.63;;;20.83;;
7154;SDS011;3619;53.784;10.440;2022-12-11T00:58:50;19.30;;;18.60;;
7154;SDS011;3619;53.784;10.440;2022-12-11T01:01:17;23.07;;;22.17;;
7154;SDS011;3619;53.784;10.440;2022-12-11T01:03:45;21.90;;;21.10;;
7154;SDS011;3619;53.784;10.440;2022-12-11T01:06:14;18.63;;;17.93;;
7154;SDS011;3619;53.784;10.440;2022-12-11T01:08:42;19.60;;;18.90;;
7154;SDS011;3619;53.784;10.440;2022-12-11T01:11:10;22.03;;;21.23;;
7154;SDS011;3619;53.784;10.440;2022-12-11T01:13:40;22.03;;;21.23;;
7154;SDS011;3619;53.784;10.440;2022-12-11T01:16:10;21.00;;;20.20;;
7154;SDS011;3619;53.784;10.440;2022-12-11T01:18:38;20.13;;;19.37;;
7154;SDS011;3619;53.784;10.440;2022-12-11T01:21:05;17.20;;;16.60;;
7154;SDS011;3619;53.784;10.440;2022-12-11T01:23:33;17.90;;;17.20;;
7154;SDS011;3619;53.784;10.440;2022-12-11T01:26:03;18.53;;;17.83;;
7154;SDS011;3619;53.784;10.440;2022-12-11T01:28:31;20.10;;;19.30;;
7154;SDS011;3619;53.784;10.440;2022-12-11T01:30:59;21.10;;;20.30;;
7154;SDS011;3619;53.784;10.440;2022-12-11T01:33:27;19.03;;;18.33;;
7154;SDS011;3619;53.784;10.440;2022-12-11T01:35:56;19.20;;;18.50;;
7154;SDS011;3619;53.784;10.440;2022-12-11T01:38:23;21.07;;;20.27;;
7154;SDS011;3619;53.784;10.440;2022-12-11T01:40:50;19.67;;;18.97;;
7154;SDS011;3619;53.784;10.440;2022-12-11T01:43:21;21.63;;;20.83;;
7154;SDS011;3619;53.784;10.440;2022-12-11T01:45:48;17.80;;;17.10;;
7154;SDS011;3619;53.784;10.440;2022-12-11T01:48:17;20.73;;;19.93;;
7154;SDS011;3619;53.784;10.440;2022-12-11T01:50:46;20.30;;;19.50;;
7154;SDS011;3619;53.784;10.440;2022-12-11T01:53:16;18.63;;;17.93;;
7154;SDS011;3619;53.784;10.440;2022-12-11T01:55:46;18.73;;;18.03;;
7154;SDS011;3619;53.784;10.440;2022-12-11T01:58:16;16.70;;;16.10;;
7154;SDS011;3619;53.784;10.440;2022-12-11T02:00:45;21.90;;;21.10;;
7154;SDS011;3619;53.784;10.440;2022-12-11T02:03:12;20.13;;;19.33;;
7154;SDS011;3619;53.784;10.440;2022-12-11T02:05:41;15.33;;;14.73;;
7154;SDS011;3619;53.784;10.440;2022-12-11T02:08:11;19.93;;;19.17;;
7154;SDS011;3619;53.784;10.440;2022-12-11T02:10:42;17.73;;;17.03;;
7154;SDS011;3619;53.784;10.440;2022-12-11T02:13:17;18.30;;;17.60;;
7154;SDS011;3619;53.784;10.440;2022-12-11T02:15:49;19.40;;;18.70;;
7154;SDS011;3619;53.784;10.440;2022-12-11T02:18:25;19.90;;;19.17;;
7154;SDS011;3619;53.784;10.440;2022-12-11T02:21:00;18.63;;;17.93;;
7154;SDS011;3619;53.784;10.440;2022-12-11T02:26:46;18.97;;;18.27;;
7154;SDS011;3619;53.784;10.440;2022-12-11T02:29:28;21.30;;;20.50;;
7154;SDS011;3619;53.784;10.440;2022-12-11T02:31:59;20.10;;;19.33;;
7154;SDS011;3619;53.784;10.440;2022-12-11T02:34:31;19.67;;;18.97;;
7154;SDS011;3619;53.784;10.440;2022-12-11T02:37:06;20.47;;;19.67;;
7154;SDS011;3619;53.784;10.440;2022-12-11T02:39:37;19.80;;;19.10;;
7154;SDS011;3619;53.784;10.440;2022-12-11T02:42:07;22.83;;;21.93;;
7154;SDS011;3619;53.784;10.440;2022-12-11T02:44:37;21.63;;;20.83;;
7154;SDS011;3619;53.784;10.440;2022-12-11T02:47:06;21.77;;;20.97;;
7154;SDS011;3619;53.784;10.440;2022-12-11T02:49:47;22.33;;;21.53;;
7154;SDS011;3619;53.784;10.440;2022-12-11T02:52:15;20.60;;;19.80;;
7154;SDS011;3619;53.784;10.440;2022-12-11T02:54:45;20.33;;;19.53;;
7154;SDS011;3619;53.784;10.440;2022-12-11T02:57:15;20.27;;;19.47;;
7154;SDS011;3619;53.784;10.440;2022-12-11T02:59:48;17.73;;;17.03;;
7154;SDS011;3619;53.784;10.440;2022-12-11T03:02:45;20.17;;;19.37;;
7154;SDS011;3619;53.784;10.440;2022-12-11T03:05:33;19.37;;;18.67;;
7154;SDS011;3619;53.784;10.440;2022-12-11T03:08:00;18.90;;;18.20;;
7154;SDS011;3619;53.784;10.440;2022-12-11T03:10:27;20.57;;;19.77;;
7154;SDS011;3619;53.784;10.440;2022-12-11T03:12:54;18.70;;;18.00;;
7154;SDS011;3619;53.784;10.440;2022-12-11T03:15:28;18.70;;;18.00;;
7154;SDS011;3619;53.784;10.440;2022-12-11T03:18:03;19.70;;;19.00;;
7154;SDS011;3619;53.784;10.440;2022-12-11T03:20:36;18.93;;;18.23;;
7154;SDS011;3619;53.784;10.440;2022-12-11T03:23:11;19.60;;;18.90;;
7154;SDS011;3619;53.784;10.440;2022-12-11T03:25:46;15.73;;;15.13;;
7154;SDS011;3619;53.784;10.440;2022-12-11T03:28:22;16.27;;;15.67;;
7154;SDS011;3619;53.784;10.440;2022-12-11T03:30:55;17.77;;;17.07;;
7154;SDS011;3619;53.784;10.440;2022-12-11T03:33:27;19.03;;;18.33;;
7154;SDS011;3619;53.784;10.440;2022-12-11T03:36:00;18.93;;;18.23;;
7154;SDS011;3619;53.784;10.440;2022-12-11T03:38:34;17.87;;;17.17;;
7154;SDS011;3619;53.784;10.440;2022-12-11T03:41:06;17.47;;;16.80;;
7154;SDS011;3619;53.784;10.440;2022-12-11T03:43:35;19.07;;;18.37;;
7154;SDS011;3619;53.784;10.440;2022-12-11T03:46:05;17.97;;;17.27;;
7154;SDS011;3619;53.784;10.440;2022-12-11T03:48:33;17.30;;;16.67;;
7154;SDS011;3619;53.784;10.440;2022-12-11T03:51:08;19.87;;;19.13;;
7154;SDS011;3619;53.784;10.440;2022-12-11T03:53:36;18.20;;;17.50;;
7154;SDS011;3619;53.784;10.440;2022-12-11T03:56:12;19.13;;;18.43;;
7154;SDS011;3619;53.784;10.440;2022-12-11T03:58:40;18.53;;;17.83;;
7154;SDS011;3619;53.784;10.440;2022-12-11T04:01:09;18.27;;;17.57;;
7154;SDS011;3619;53.784;10.440;2022-12-11T04:03:37;17.30;;;16.67;;
7154;SDS011;3619;53.784;10.440;2022-12-11T04:06:07;17.93;;;17.23;;
7154;SDS011;3619;53.784;10.440;2022-12-11T04:08:34;19.03;;;18.33;;
7154;SDS011;3619;53.784;10.440;2022-12-11T04:11:02;16.53;;;15.93;;
7154;SDS011;3619;53.784;10.440;2022-12-11T04:13:43;16.13;;;15.53;;
7154;SDS011;3619;53.784;10.440;2022-12-11T04:16:32;14.00;;;13.50;;
7154;SDS011;3619;53.784;10.440;2022-12-11T04:18:58;14.63;;;14.10;;
7154;SDS011;3619;53.784;10.440;2022-12-11T04:21:42;16.43;;;15.83;;
7154;SDS011;3619;53.784;10.440;2022-12-11T04:24:26;15.87;;;15.27;;
7154;SDS011;3619;53.784;10.440;2022-12-11T04:26:53;17.03;;;16.43;;
7154;SDS011;3619;53.784;10.440;2022-12-11T04:29:21;15.20;;;14.60;;
7154;SDS011;3619;53.784;10.440;2022-12-11T04:31:49;20.00;;;19.23;;
7154;SDS011;3619;53.784;10.440;2022-12-11T04:34:16;17.80;;;17.10;;
7154;SDS011;3619;53.784;10.440;2022-12-11T04:36:45;19.70;;;19.00;;
7154;SDS011;3619;53.784;10.440;2022-12-11T04:39:14;14.80;;;14.23;;
7154;SDS011;3619;53.784;10.440;2022-12-11T04:41:41;16.27;;;15.67;;
7154;SDS011;3619;53.784;10.440;2022-12-11T04:44:08;16.70;;;16.10;;
7154;SDS011;3619;53.784;10.440;2022-12-11T04:46:35;16.83;;;16.23;;
7154;SDS011;3619;53.784;10.440;2022-12-11T04:49:07;19.47;;;18.77;;
7154;SDS011;3619;53.784;10.440;2022-12-11T04:51:39;18.17;;;17.47;;
7154;SDS011;3619;53.784;10.440;2022-12-11T04:54:06;17.40;;;16.73;;
7154;SDS011;3619;53.784;10.440;2022-12-11T04:56:34;17.60;;;16.90;;
7154;SDS011;3619;53.784;10.440;2022-12-11T04:59:02;16.50;;;15.90;;
7154;SDS011;3619;53.784;10.440;2022-12-11T05:01:32;18.07;;;17.37;;
7154;SDS011;3619;53.784;10.440;2022-12-11T05:03:59;17.17;;;16.57;;
7154;SDS011;3619;53.784;10.440;2022-12-11T05:06:27;15.17;;;14.57;;
7154;SDS011;3619;53.784;10.440;2022-12-11T05:08:54;15.43;;;14.83;;
7154;SDS011;3619;53.784;10.440;2022-12-11T05:11:21;17.50;;;16.83;;
7154;SDS011;3619;53.784;10.440;2022-12-11T05:13:50;16.47;;;15.87;;
7154;SDS011;3619;53.784;10.440;2022-12-11T05:16:17;16.67;;;16.07;;
7154;SDS011;3619;53.784;10.440;2022-12-11T05:18:44;16.57;;;15.97;;
7154;SDS011;3619;53.784;10.440;2022-12-11T05:21:13;15.07;;;14.47;;
7154;SDS011;3619;53.784;10.440;2022-12-11T05:23:42;14.17;;;13.67;;
7154;SDS011;3619;53.784;10.440;2022-12-11T05:26:11;15.07;;;14.47;;
7154;SDS011;3619;53.784;10.440;2022-12-11T05:28:41;15.10;;;14.50;;
7154;SDS011;3619;53.784;10.440;2022-12-11T05:31:10;15.53;;;14.93;;
7154;SDS011;3619;53.784;10.440;2022-12-11T05:33:39;13.90;;;13.40;;
7154;SDS011;3619;53.784;10.440;2022-12-11T05:36:06;17.17;;;16.57;;
7154;SDS011;3619;53.784;10.440;2022-12-11T05:38:34;17.23;;;16.60;;
7154;SDS011;3619;53.784;10.440;2022-12-11T05:44:02;16.57;;;15.97;;
7154;SDS011;3619;53.784;10.440;2022-12-11T05:46:29;14.17;;;13.67;;
7154;SDS011;3619;53.784;10.440;2022-12-11T05:48:57;13.33;;;12.83;;
7154;SDS011;3619;53.784;10.440;2022-12-11T05:51:25;13.20;;;12.70;;
7154;SDS011;3619;53.784;10.440;2022-12-11T05:53:54;13.70;;;13.20;;
7154;SDS011;3619;53.784;10.440;2022-12-11T05:56:24;15.20;;;14.60;;
7154;SDS011;3619;53.784;10.440;2022-12-11T05:58:52;15.57;;;14.97;;
7154;SDS011;3619;53.784;10.440;2022-12-11T06:01:21;13.23;;;12.73;;
7154;SDS011;3619;53.784;10.440;2022-12-11T06:03:50;15.13;;;14.53;;
7154;SDS011;3619;53.784;10.440;2022-12-11T06:06:18;13.83;;;13.33;;
7154;SDS011;3619;53.784;10.440;2022-12-11T06:08:59;12.87;;;12.37;;
7154;SDS011;3619;53.784;10.440;2022-12-11T06:11:28;13.40;;;12.90;;
7154;SDS011;3619;53.784;10.440;2022-12-11T06:13:56;14.47;;;13.97;;
7154;SDS011;3619;53.784;10.440;2022-12-11T06:16:25;13.47;;;12.97;;
7154;SDS011;3619;53.784;10.440;2022-12-11T06:18:55;15.80;;;15.20;;
7154;SDS011;3619;53.784;10.440;2022-12-11T06:21:29;14.73;;;14.20;;
7154;SDS011;3619;53.784;10.440;2022-12-11T06:23:58;13.40;;;12.90;;
7154;SDS011;3619;53.784;10.440;2022-12-11T06:26:35;13.60;;;13.10;;
7154;SDS011;3619;53.784;10.440;2022-12-11T06:29:06;14.23;;;13.73;;
7154;SDS011;3619;53.784;10.440;2022-12-11T06:31:32;12.80;;;12.30;;
7154;SDS011;3619;53.784;10.440;2022-12-11T06:34:01;13.30;;;12.80;;
7154;SDS011;3619;53.784;10.440;2022-12-11T06:36:33;13.03;;;12.53;;
7154;SDS011;3619;53.784;10.440;2022-12-11T06:39:11;12.07;;;11.67;;
7154;SDS011;3619;53.784;10.440;2022-12-11T06:41:39;10.83;;;10.43;;
7154;SDS011;3619;53.784;10.440;2022-12-11T06:44:10;10.90;;;10.50;;
7154;SDS011;3619;53.784;10.440;2022-12-11T06:46:37;11.40;;;11.00;;
7154;SDS011;3619;53.784;10.440;2022-12-11T06:49:08;11.03;;;10.63;;
7154;SDS011;3619;53.784;10.440;2022-12-11T06:51:35;10.03;;;9.63;;
7154;SDS011;3619;53.784;10.440;2022-12-11T06:54:03;10.33;;;9.93;;
7154;SDS011;3619;53.784;10.440;2022-12-11T06:56:32;8.03;;;7.73;;
7154;SDS011;3619;53.784;10.440;2022-12-11T06:59:01;11.70;;;11.30;;
7154;SDS011;3619;53.784;10.440;2022-12-11T07:01:28;10.20;;;9.80;;
7154;SDS011;3619;53.784;10.440;2022-12-11T07:03:56;16.77;;;16.03;;
7154;SDS011;3619;53.784;10.440;2022-12-11T07:06:26;8.17;;;7.87;;
7154;SDS011;3619;53.784;10.440;2022-12-11T07:08:54;9.00;;;8.70;;
7154;SDS011;3619;53.784;10.440;2022-12-11T07:11:21;9.97;;;9.57;;
7154;SDS011;3619;53.784;10.440;2022-12-11T07:13:49;8.17;;;7.87;;
7154;SDS011;3619;53.784;10.440;2022-12-11T07:16:17;8.20;;;7.90;;
7154;SDS011;3619;53.784;10.440;2022-12-11T07:18:46;7.90;;;7.60;;
7154;SDS011;3619;53.784;10.440;2022-12-11T07:21:14;7.77;;;7.47;;
7154;SDS011;3619;53.784;10.440;2022-12-11T07:23:41;7.03;;;6.77;;
7154;SDS011;3619;53.784;10.440;2022-12-11T07:26:09;7.27;;;6.97;;
7154;SDS011;3619;53.784;10.440;2022-12-11T07:28:37;8.53;;;8.23;;
7154;SDS011;3619;53.784;10.440;2022-12-11T07:31:05;7.20;;;6.90;;
7154;SDS011;3619;53.784;10.440;2022-12-11T07:33:54;5.97;;;5.77;;
7154;SDS011;3619;53.784;10.440;2022-12-11T07:36:29;5.27;;;5.07;;
7154;SDS011;3619;53.784;10.440;2022-12-11T07:38:56;7.03;;;6.77;;
7154;SDS011;3619;53.784;10.440;2022-12-11T07:41:25;8.37;;;8.07;;
7154;SDS011;3619;53.784;10.440;2022-12-11T07:43:52;4.53;;;4.37;;
7154;SDS011;3619;53.784;10.440;2022-12-11T07:46:20;5.80;;;5.60;;
7154;SDS011;3619;53.784;10.440;2022-12-11T07:48:52;4.70;;;4.50;;
7154;SDS011;3619;53.784;10.440;2022-12-11T07:51:20;4.97;;;4.77;;
7154;SDS011;3619;53.784;10.440;2022-12-11T07:54:03;5.60;;;5.40;;
7154;SDS011;3619;53.784;10.440;2022-12-11T07:56:31;5.20;;;5.00;;
7154;SDS011;3619;53.784;10.440;2022-12-11T07:58:59;5.43;;;5.23;;
7154;SDS011;3619;53.784;10.440;2022-12-11T08:01:27;5.50;;;5.30;;
7154;SDS011;3619;53.784;10.440;2022-12-11T08:03:57;5.70;;;5.50;;
7154;SDS011;3619;53.784;10.440;2022-12-11T08:06:27;5.80;;;5.60;;
7154;SDS011;3619;53.784;10.440;2022-12-11T08:08:55;7.13;;;6.83;;
7154;SDS011;3619;53.784;10.440;2022-12-11T08:11:27;6.50;;;6.30;;
7154;SDS011;3619;53.784;10.440;2022-12-11T08:14:00;6.13;;;5.93;;
7154;SDS011;3619;53.784;10.440;2022-12-11T08:16:38;5.97;;;5.77;;
7154;SDS011;3619;53.784;10.440;2022-12-11T08:19:13;6.67;;;6.47;;
7154;SDS011;3619;53.784;10.440;2022-12-11T08:21:42;6.13;;;5.93;;
7154;SDS011;3619;53.784;10.440;2022-12-11T08:24:40;6.70;;;6.50;;
7154;SDS011;3619;53.784;10.440;2022-12-11T08:27:09;7.20;;;6.90;;
7154;SDS011;3619;53.784;10.440;2022-12-11T08:29:35;7.23;;;6.93;;
7154;SDS011;3619;53.784;10.440;2022-12-11T08:32:09;9.53;;;9.20;;
7154;SDS011;3619;53.784;10.440;2022-12-11T08:34:39;8.40;;;8.10;;
7154;SDS011;3619;53.784;10.440;2022-12-11T08:37:08;10.13;;;9.73;;
7154;SDS011;3619;53.784;10.440;2022-12-11T08:39:44;8.93;;;8.63;;
7154;SDS011;3619;53.784;10.440;2022-12-11T08:42:12;9.23;;;8.93;;
7154;SDS011;3619;53.784;10.440;2022-12-11T08:44:39;9.20;;;8.90;;
7154;SDS011;3619;53.784;10.440;2022-12-11T08:47:05;9.63;;;9.23;;
7154;SDS011;3619;53.784;10.440;2022-12-11T08:49:33;7.97;;;7.67;;
7154;SDS011;3619;53.784;10.440;2022-12-11T08:52:07;10.57;;;10.17;;
7154;SDS011;3619;53.784;10.440;2022-12-11T08:54:35;10.57;;;10.17;;
7154;SDS011;3619;53.784;10.440;2022-12-11T08:57:04;11.23;;;10.83;;
7154;SDS011;3619;53.784;10.440;2022-12-11T08:59:32;10.20;;;9.80;;
7154;SDS011;3619;53.784;10.440;2022-12-11T09:02:08;10.50;;;10.10;;
7154;SDS011;3619;53.784;10.440;2022-12-11T09:05:05;10.97;;;10.57;;
7154;SDS011;3619;53.784;10.440;2022-12-11T09:07:36;11.00;;;10.60;;
7154;SDS011;3619;53.784;10.440;2022-12-11T09:10:07;10.20;;;9.80;;
7154;SDS011;3619;53.784;10.440;2022-12-11T09:12:36;9.10;;;8.80;;
7154;SDS011;3619;53.784;10.440;2022-12-11T09:15:04;10.77;;;10.37;;
7154;SDS011;3619;53.784;10.440;2022-12-11T09:17:32;9.30;;;9.00;;
7154;SDS011;3619;53.784;10.440;2022-12-11T09:20:01;9.80;;;9.40;;
7154;SDS011;3619;53.784;10.440;2022-12-11T09:22:28;10.10;;;9.70;;
7154;SDS011;3619;53.784;10.440;2022-12-11T09:25:00;11.43;;;11.03;;
7154;SDS011;3619;53.784;10.440;2022-12-11T09:27:27;8.27;;;7.97;;
7154;SDS011;3619;53.784;10.440;2022-12-11T09:29:54;9.17;;;8.87;;
7154;SDS011;3619;53.784;10.440;2022-12-11T09:32:24;7.43;;;7.13;;
7154;SDS011;3619;53.784;10.440;2022-12-11T09:35:37;7.80;;;7.50;;
7154;SDS011;3619;53.784;10.440;2022-12-11T09:38:30;9.10;;;8.80;;
7154;SDS011;3619;53.784;10.440;2022-12-11T09:40:59;8.73;;;8.43;;
7154;SDS011;3619;53.784;10.440;2022-12-11T09:43:31;8.63;;;8.33;;
7154;SDS011;3619;53.784;10.440;2022-12-11T09:46:08;9.27;;;8.97;;
7154;SDS011;3619;53.784;10.440;2022-12-11T09:48:38;8.50;;;8.20;;
7154;SDS011;3619;53.784;10.440;2022-12-11T09:51:10;8.00;;;7.70;;
7154;SDS011;3619;53.784;10.440;2022-12-11T09:53:43;7.73;;;7.43;;
7154;SDS011;3619;53.784;10.440;2022-12-11T09:56:14;8.47;;;8.17;;
7154;SDS011;3619;53.784;10.440;2022-12-11T09:58:52;9.37;;;9.07;;
7154;SDS011;3619;53.784;10.440;2022-12-11T10:01:30;9.63;;;9.27;;
7154;SDS011;3619;53.784;10.440;2022-12-11T10:04:08;8.87;;;8.57;;
7154;SDS011;3619;53.784;10.440;2022-12-11T10:06:46;8.77;;;8.47;;
7154;SDS011;3619;53.784;10.440;2022-12-11T10:09:28;8.63;;;8.33;;
7154;SDS011;3619;53.784;10.440;2022-12-11T10:12:06;10.07;;;9.67;;
7154;SDS011;3619;53.784;10.440;2022-12-11T10:14:46;11.73;;;11.33;;
7154;SDS011;3619;53.784;10.440;2022-12-11T10:17:21;10.27;;;9.87;;
7154;SDS011;3619;53.784;10.440;2022-12-11T10:19:53;10.27;;;9.87;;
7154;SDS011;3619;53.784;10.440;2022-12-11T10:22:28;8.67;;;8.37;;
7154;SDS011;3619;53.784;10.440;2022-12-11T10:24:58;10.87;;;10.47;;
7154;SDS011;3619;53.784;10.440;2022-12-11T10:27:30;10.00;;;9.60;;
7154;SDS011;3619;53.784;10.440;2022-12-11T10:30:00;11.37;;;10.97;;
7154;SDS011;3619;53.784;10.440;2022-12-11T10:32:35;14.67;;;14.13;;
7154;SDS011;3619;53.784;10.440;2022-12-11T10:35:15;14.73;;;14.20;;
7154;SDS011;3619;53.784;10.440;2022-12-11T10:37:45;14.13;;;13.63;;
7154;SDS011;3619;53.784;10.440;2022-12-11T10:40:12;15.57;;;14.97;;
7154;SDS011;3619;53.784;10.440;2022-12-11T10:42:49;16.40;;;15.80;;
7154;SDS011;3619;53.784;10.440;2022-12-11T10:45:17;16.13;;;15.53;;
7154;SDS011;3619;53.784;10.440;2022-12-11T10:47:44;16.27;;;15.67;;
7154;SDS011;3619;53.784;10.440;2022-12-11T10:50:20;19.40;;;18.70;;
7154;SDS011;3619;53.784;10.440;2022-12-11T10:52:48;16.27;;;15.67;;
7154;SDS011;3619;53.784;10.440;2022-12-11T10:55:18;16.30;;;15.70;;
7154;SDS011;3619;53.784;10.440;2022-12-11T10:57:54;19.33;;;18.63;;
7154;SDS011;3619;53.784;10.440;2022-12-11T11:00:28;20.47;;;19.67;;
7154;SDS011;3619;53.784;10.440;2022-12-11T11:03:01;15.30;;;14.70;;
7154;SDS011;3619;53.784;10.440;2022-12-11T11:05:30;15.93;;;15.33;;
7154;SDS011;3619;53.784;10.440;2022-12-11T11:08:13;15.63;;;15.03;;
7154;SDS011;3619;53.784;10.440;2022-12-11T11:10:52;13.73;;;13.23;;
7154;SDS011;3619;53.784;10.440;2022-12-11T11:13:22;14.97;;;14.37;;
7154;SDS011;3619;53.784;10.440;2022-12-11T11:16:03;14.17;;;13.67;;
7154;SDS011;3619;53.784;10.440;2022-12-11T11:18:34;13.53;;;13.03;;
7154;SDS011;3619;53.784;10.440;2022-12-11T11:21:02;13.97;;;13.47;;
7154;SDS011;3619;53.784;10.440;2022-12-11T11:23:29;16.17;;;15.57;;
7154;SDS011;3619;53.784;10.440;2022-12-11T11:25:57;14.43;;;13.93;;
7154;SDS011;3619;53.784;10.440;2022-12-11T11:28:28;12.13;;;11.70;;
7154;SDS011;3619;53.784;10.440;2022-12-11T11:30:58;14.40;;;13.90;;
7154;SDS011;3619;53.784;10.440;2022-12-11T11:33:28;11.13;;;10.73;;
7154;SDS011;3619;53.784;10.440;2022-12-11T11:35:58;13.57;;;13.07;;
7154;SDS011;3619;53.784;10.440;2022-12-11T11:38:27;13.00;;;12.50;;
7154;SDS011;3619;53.784;10.440;2022-12-11T11:41:00;14.23;;;13.73;;
7154;SDS011;3619;53.784;10.440;2022-12-11T11:43:39;16.40;;;15.80;;
7154;SDS011;3619;53.784;10.440;2022-12-11T11:46:11;13.77;;;13.27;;
7154;SDS011;3619;53.784;10.440;2022-12-11T11:48:44;10.23;;;9.83;;
7154;SDS011;3619;53.784;10.440;2022-12-11T11:51:21;14.77;;;14.23;;
7154;SDS011;3619;53.784;10.440;2022-12-11T11:53:53;15.00;;;14.40;;
7154;SDS011;3619;53.784;10.440;2022-12-11T11:56:24;14.10;;;13.60;;
7154;SDS011;3619;53.784;10.440;2022-12-11T11:58:56;12.17;;;11.73;;
7154;SDS011;3619;53.784;10.440;2022-12-11T12:01:28;14.23;;;13.73;;
7154;SDS011;3619;53.784;10.440;2022-12-11T12:03:55;12.83;;;12.33;;
7154;SDS011;3619;53.784;10.440;2022-12-11T12:09:33;14.83;;;14.27;;
7154;SDS011;3619;53.784;10.440;2022-12-11T12:12:12;14.37;;;13.87;;
7154;SDS011;3619;53.784;10.440;2022-12-11T12:14:49;12.70;;;12.20;;
7154;SDS011;3619;53.784;10.440;2022-12-11T12:17:46;13.20;;;12.70;;
7154;SDS011;3619;53.784;10.440;2022-12-11T12:21:06;15.93;;;15.33;;
7154;SDS011;3619;53.784;10.440;2022-12-11T12:24:03;13.30;;;12.80;;
7154;SDS011;3619;53.784;10.440;2022-12-11T12:26:39;15.27;;;14.67;;
7154;SDS011;3619;53.784;10.440;2022-12-11T12:29:34;13.50;;;13.00;;
7154;SDS011;3619;53.784;10.440;2022-12-11T12:32:19;13.07;;;12.57;;
7154;SDS011;3619;53.784;10.440;2022-12-11T12:35:17;10.73;;;10.33;;
7154;SDS011;3619;53.784;10.440;2022-12-11T12:38:12;12.73;;;12.23;;
7154;SDS011;3619;53.784;10.440;2022-12-11T12:41:43;14.23;;;13.73;;
7154;SDS011;3619;53.784;10.440;2022-12-11T12:45:33;14.10;;;13.60;;
7154;SDS011;3619;53.784;10.440;2022-12-11T12:54:05;11.57;;;11.17;;
7154;SDS011;3619;53.784;10.440;2022-12-11T12:57:08;10.70;;;10.30;;
7154;SDS011;3619;53.784;10.440;2022-12-11T12:59:52;10.40;;;10.00;;
7154;SDS011;3619;53.784;10.440;2022-12-11T13:02:56;9.53;;;9.20;;
7154;SDS011;3619;53.784;10.440;2022-12-11T13:06:02;7.30;;;7.00;;
7154;SDS011;3619;53.784;10.440;2022-12-11T13:18:39;10.40;;;10.00;;
7154;SDS011;3619;53.784;10.440;2022-12-11T13:21:25;7.43;;;7.13;;
7154;SDS011;3619;53.784;10.440;2022-12-11T13:24:55;6.37;;;6.17;;
7154;SDS011;3619;53.784;10.440;2022-12-11T13:27:52;6.17;;;5.97;;
7154;SDS011;3619;53.784;10.440;2022-12-11T13:31:02;8.03;;;7.73;;
7154;SDS011;3619;53.784;10.440;2022-12-11T13:33:52;6.17;;;5.97;;
7154;SDS011;3619;53.784;10.440;2022-12-11T13:36:31;7.10;;;6.83;;
7154;SDS011;3619;53.784;10.440;2022-12-11T13:39:03;6.53;;;6.33;;
7154;SDS011;3619;53.784;10.440;2022-12-11T13:41:52;7.87;;;7.57;;
7154;SDS011;3619;53.784;10.440;2022-12-11T13:44:50;8.43;;;8.13;;
7154;SDS011;3619;53.784;10.440;2022-12-11T13:47:22;6.23;;;6.03;;
7154;SDS011;3619;53.784;10.440;2022-12-11T13:50:34;8.03;;;7.73;;
7154;SDS011;3619;53.784;10.440;2022-12-11T13:53:04;9.93;;;9.53;;
7154;SDS011;3619;53.784;10.440;2022-12-11T13:55:42;8.43;;;8.13;;
7154;SDS011;3619;53.784;10.440;2022-12-11T14:04:59;7.60;;;7.30;;
7154;SDS011;3619;53.784;10.440;2022-12-11T14:11:01;7.47;;;7.17;;
7154;SDS011;3619;53.784;10.440;2022-12-11T14:17:27;7.57;;;7.27;;
7154;SDS011;3619;53.784;10.440;2022-12-11T14:26:52;8.50;;;8.20;;
7154;SDS011;3619;53.784;10.440;2022-12-11T14:29:26;7.90;;;7.60;;
7154;SDS011;3619;53.784;10.440;2022-12-11T14:32:03;6.73;;;6.53;;
7154;SDS011;3619;53.784;10.440;2022-12-11T14:34:37;8.10;;;7.80;;
7154;SDS011;3619;53.784;10.440;2022-12-11T14:37:20;9.37;;;9.07;;
7154;SDS011;3619;53.784;10.440;2022-12-11T14:39:53;7.53;;;7.23;;
7154;SDS011;3619;53.784;10.440;2022-12-11T14:45:58;10.37;;;9.97;;
7154;SDS011;3619;53.784;10.440;2022-12-11T14:48:29;9.17;;;8.87;;
7154;SDS011;3619;53.784;10.440;2022-12-11T14:54:41;10.63;;;10.23;;
7154;SDS011;3619;53.784;10.440;2022-12-11T14:57:28;9.57;;;9.20;;
7154;SDS011;3619;53.784;10.440;2022-12-11T15:00:40;8.63;;;8.33;;
7154;SDS011;3619;53.784;10.440;2022-12-11T15:03:21;10.10;;;9.70;;
7154;SDS011;3619;53.784;10.440;2022-12-11T15:06:19;10.53;;;10.13;;
7154;SDS011;3619;53.784;10.440;2022-12-11T15:10:19;10.00;;;9.60;;
7154;SDS011;3619;53.784;10.440;2022-12-11T15:12:24;9.43;;;9.10;;
7154;SDS011;3619;53.784;10.440;2022-12-11T15:14:53;10.37;;;9.97;;
7154;SDS011;3619;53.784;10.440;2022-12-11T15:17:31;8.33;;;8.03;;
7154;SDS011;3619;53.784;10.440;2022-12-11T15:20:28;11.30;;;10.90;;
7154;SDS011;3619;53.784;10.440;2022-12-11T15:22:58;9.63;;;9.27;;
7154;SDS011;3619;53.784;10.440;2022-12-11T15:25:55;11.00;;;10.60;;
7154;SDS011;3619;53.784;10.440;2022-12-11T15:28:58;9.37;;;9.03;;
7154;SDS011;3619;53.784;10.440;2022-12-11T15:42:39;8.97;;;8.67;;
7154;SDS011;3619;53.784;10.440;2022-12-11T15:45:24;9.93;;;9.53;;
7154;SDS011;3619;53.784;10.440;2022-12-11T15:55:05;9.67;;;9.27;;
7154;SDS011;3619;53.784;10.440;2022-12-11T15:58:05;9.57;;;9.23;;
7154;SDS011;3619;53.784;10.440;2022-12-11T16:03:37;10.93;;;10.53;;
7154;SDS011;3619;53.784;10.440;2022-12-11T16:06:17;10.37;;;9.97;;
7154;SDS011;3619;53.784;10.440;2022-12-11T16:09:20;11.70;;;11.30;;
7154;SDS011;3619;53.784;10.440;2022-12-11T16:12:12;11.63;;;11.23;;
7154;SDS011;3619;53.784;10.440;2022-12-11T16:18:26;11.27;;;10.87;;
7154;SDS011;3619;53.784;10.440;2022-12-11T16:21:37;9.07;;;8.77;;
7154;SDS011;3619;53.784;10.440;2022-12-11T16:24:40;11.40;;;11.00;;
7154;SDS011;3619;53.784;10.440;2022-12-11T16:28:09;12.17;;;11.77;;
7154;SDS011;3619;53.784;10.440;2022-12-11T16:30:14;11.00;;;10.60;;
7154;SDS011;3619;53.784;10.440;2022-12-11T16:33:01;10.77;;;10.37;;
7154;SDS011;3619;53.784;10.440;2022-12-11T16:35:55;11.53;;;11.13;;
7154;SDS011;3619;53.784;10.440;2022-12-11T16:38:25;10.97;;;10.57;;
7154;SDS011;3619;53.784;10.440;2022-12-11T16:41:00;11.50;;;11.10;;
7154;SDS011;3619;53.784;10.440;2022-12-11T16:43:52;11.13;;;10.73;;
7154;SDS011;3619;53.784;10.440;2022-12-11T16:50:12;12.20;;;11.77;;